Flight Track Log - Related Links

Times and Time Zones

All times are in EDT time to prevent confusion due to time zone crossing. See the ASQ4209 flight status page for this flight to view local times or setup timezone preferences in your user account.

Time Position Orientation Groundspeed Altitude Reporting Facility
EDT Latitude Longitude Course Direction KTS MPH feet Rate Location/Type
Mon 01:09:37 PM 38.7667 -90.4333 80° East 177 204 1,700  Level Gateway (St. Louis) TRACON
Mon 01:10:37 PM 38.8167 -90.4833 322° Northwest 243 280 3,500 1,533 Climbing Gateway (St. Louis) TRACON
Mon 01:11:07 PM 38.8433 -90.4578 37° Northeast 242 278 4,000 1,696 Climbing Kansas City Center
Mon 01:12:00 PM 38.7605 -89.8311 87° East  Level FlightAware Approximate
Mon 01:12:09 PM 38.8467 -90.3575 88° East 268 308 6,100  Level Kansas City Center
Mon 01:13:00 PM 38.7655 -89.6971 87° East  Level FlightAware Approximate
Mon 01:13:11 PM 38.8378 -90.2556 96° East 282 325 8,100  Level Kansas City Center
Mon 01:14:00 PM 38.7812 -89.5646 80° East  Level FlightAware Approximate
Mon 01:14:12 PM 38.8314 -90.1467 94° East 298 343 10,200  Level Kansas City Center
Mon 01:15:14 PM 38.8231 -90.0364 96° East 307 353 11,400 968 Climbing Kansas City Center
Mon 01:16:16 PM 38.8136 -89.9075 95° East 353 406 12,200 968 Climbing Kansas City Center
Mon 01:17:18 PM 38.8039 -89.7750 95° East 370 426 13,400 1,317 Climbing Kansas City Center
Mon 01:18:19 PM 38.7922 -89.6208 95° East 376 433 14,900 1,268 Climbing Kansas City Center
Mon 01:19:21 PM 38.7975 -89.4722 87° East 388 447 16,000 1,065 Climbing Kansas City Center
Mon 01:20:23 PM 38.8153 -89.3325 81° East 396 456 17,100 1,065 Climbing Kansas City Center
Mon 01:21:25 PM 38.8336 -89.1903 81° East 403 464 18,200 1,024 Climbing Kansas City Center
Mon 01:22:26 PM 38.8525 -89.0378 81° East 403 464 19,200 878 Climbing Kansas City Center
Mon 01:23:28 PM 38.8689 -88.9094 81° East 411 473 20,000 726 Climbing Kansas City Center
Mon 01:24:30 PM 38.8892 -88.7625 80° East 418 481 20,700 726 Climbing Kansas City Center
Mon 01:25:32 PM 38.9072 -88.6019 82° East 426 490 21,500 774 Climbing Kansas City Center
Mon 01:26:34 PM 38.9306 -88.4500 79° East 430 495 22,300 871 Climbing Kansas City Center
Mon 01:27:36 PM 38.9697 -88.3047 71° East 427 491 23,300 1,122 Climbing Kansas City Center
Mon 01:28:37 PM 39.0200 -88.1297 70° East 431 496 24,600 1,050 Climbing Kansas City Center
Mon 01:29:36 PM 39.0503 -88.0169 71° East 427 491 25,400 992 Climbing Indianapolis Center
Mon 01:30:38 PM 39.0969 -87.8458 71° East 421 484 26,600 1,122 Climbing Indianapolis Center
Mon 01:31:39 PM 39.1358 -87.7031 71° East 420 483 27,700 1,024 Climbing Indianapolis Center
Mon 01:32:41 PM 39.1733 -87.5653 71° East 416 479 28,700 968 Climbing Indianapolis Center
Mon 01:33:43 PM 39.2125 -87.4269 70° East 413 475 29,700 634 Climbing Indianapolis Center
Mon 01:34:44 PM 39.2500 -87.2861 71° East 415 478 30,000 146 Climbing Indianapolis Center
Mon 01:35:46 PM 39.2897 -87.1353 71° East 442 509 30,000  Level Indianapolis Center
Mon 01:36:48 PM 39.3317 -86.9806 71° East 458 527 30,000 98 Level Indianapolis Center
Mon 01:37:49 PM 39.3825 -86.7892 71° East 470 541 30,200 488 Climbing Indianapolis Center
Mon 01:38:51 PM 39.4242 -86.6306 71° East 468 539 31,000 387 Climbing Indianapolis Center
Mon 01:39:53 PM 39.4644 -86.4744 71° East 462 532 31,000  Level Indianapolis Center
Mon 01:40:54 PM 39.5044 -86.3200 71° East 460 529 31,000  Level Indianapolis Center
Mon 01:41:56 PM 39.5450 -86.1664 71° East 460 529 31,000  Level Indianapolis Center
Mon 01:42:57 PM 39.5925 -85.9808 72° East 460 529 31,000  Level Indianapolis Center
Mon 01:43:59 PM 39.6331 -85.8267 71° East 458 527 31,000  Level Indianapolis Center
Mon 01:45:00 PM 39.6875 -85.6772 65° Northeast 461 531 31,000  Level Indianapolis Center
Mon 01:46:02 PM 39.7442 -85.5294 63° Northeast 461 531 31,000  Level Indianapolis Center
Mon 01:47:04 PM 39.8000 -85.3794 64° Northeast 463 533 31,000  Level Indianapolis Center
Mon 01:48:05 PM 39.8553 -85.2294 64° Northeast 462 532 31,000  Level Indianapolis Center
Mon 01:49:07 PM 39.9122 -85.0781 64° Northeast 466 536 31,000  Level Indianapolis Center
Mon 01:50:08 PM 39.9778 -84.8969 65° Northeast 465 535 31,000  Level Indianapolis Center
Mon 01:51:10 PM 40.0281 -84.7631 64° Northeast 465 535 31,000  Level Indianapolis Center
Mon 01:52:11 PM 40.0842 -84.6092 64° Northeast 463 533 31,000  Level Indianapolis Center
Mon 01:53:13 PM 40.1503 -84.4278 64° Northeast 469 540 31,000  Level Indianapolis Center
Mon 01:54:15 PM 40.2061 -84.2736 65° Northeast 465 535 31,000  Level Indianapolis Center
Mon 01:55:16 PM 40.2611 -84.1183 65° Northeast 463 533 31,000  Level Indianapolis Center
Mon 01:56:18 PM 40.3225 -83.9675 62° Northeast 463 533 31,000  Level Indianapolis Center
Mon 01:57:20 PM 40.3908 -83.8217 58° Northeast 463 533 31,000  Level Indianapolis Center
Mon 01:58:21 PM 40.4575 -83.6761 59° Northeast 461 531 31,000  Level Indianapolis Center
Mon 01:59:23 PM 40.5231 -83.5314 59° Northeast 457 526 31,000  Level Indianapolis Center
Mon 02:00:24 PM 40.5894 -83.3847 59° Northeast 460 529 31,000  Level Indianapolis Center
Mon 02:01:26 PM 40.6553 -83.2372 59° Northeast 462 532 31,000  Level Indianapolis Center
Mon 02:02:28 PM 40.7225 -83.0903 59° Northeast 463 533 31,000  Level Indianapolis Center
Mon 02:03:29 PM 40.7869 -82.9444 60° Northeast 460 529 31,000  Level Indianapolis Center
Mon 02:04:31 PM 40.8519 -82.7983 60° Northeast 458 527 31,000  Level Indianapolis Center
Mon 02:05:32 PM 40.9167 -82.6522 60° Northeast 457 526 31,000  Level Indianapolis Center
Mon 02:06:34 PM 40.9922 -82.4822 59° Northeast 454 522 31,000  Level Indianapolis Center
Mon 02:07:35 PM 41.0556 -82.3364 60° Northeast 454 522 31,000  Level Indianapolis Center
Mon 02:08:27 PM 41.1083 -82.2117 61° Northeast 454 522 31,000  Level Cleveland Center
Mon 02:09:27 PM 41.1750 -82.0644 59° Northeast 449 517 31,000  Level Cleveland Center
Mon 02:10:27 PM 41.2392 -81.9169 60° Northeast 454 522 31,000  Level Cleveland Center
Mon 02:11:27 PM 41.2950 -81.7881 60° Northeast 454 522 31,000  Level Cleveland Center
Mon 02:12:27 PM 41.3611 -81.6400 59° Northeast 454 522 31,000  Level Cleveland Center
Mon 02:13:27 PM 41.4269 -81.4775 62° Northeast 454 522 31,000  Level Cleveland Center
Mon 02:14:27 PM 41.4906 -81.3289 60° Northeast 454 522 31,000  Level Cleveland Center
Mon 02:15:27 PM 41.5519 -81.1797 61° Northeast 454 522 31,000  Level Cleveland Center
Mon 02:16:27 PM 41.6172 -81.0275 60° Northeast 459 528 31,000  Level Cleveland Center
Mon 02:17:27 PM 41.6781 -80.8778 61° Northeast 454 522 31,000  Level Cleveland Center
Mon 02:18:27 PM 41.7431 -80.7222 61° Northeast 454 522 31,000  Level Cleveland Center
Mon 02:19:27 PM 41.7911 -80.5636 68° East 454 522 31,000  Level Cleveland Center
Mon 02:20:27 PM 41.7806 -80.3828 94° East 468 539 31,000  Level Cleveland Center
Mon 02:21:27 PM 41.7656 -80.2183 97° East 468 539 31,000  Level Cleveland Center
Mon 02:22:27 PM 41.7461 -80.0378 98° East 487 560 31,000  Level Cleveland Center
Mon 02:23:27 PM 41.7264 -79.8542 98° East 495 570 31,000  Level Cleveland Center
Mon 02:24:27 PM 41.7061 -79.6736 98° East 495 570 31,000  Level Cleveland Center
Mon 02:25:27 PM 41.6881 -79.4903 97° East 495 570 31,000  Level Cleveland Center
Mon 02:26:27 PM 41.6672 -79.3072 99° East 495 570 31,000  Level Cleveland Center
Mon 02:27:27 PM 41.6483 -79.1242 98° East 500 575 31,000  Level Cleveland Center
Mon 02:28:27 PM 41.6272 -78.9386 99° East 500 575 31,000  Level Cleveland Center
Mon 02:29:27 PM 41.6056 -78.7531 99° East 500 575 31,000  Level Cleveland Center
Mon 02:30:27 PM 41.5839 -78.5706 99° East 500 575 31,000  Level Cleveland Center
Mon 02:32:00 PM 41.5536 -78.3371 100° East  Level FlightAware Approximate
Mon 02:32:42 PM 41.5342 -78.1431 100° East 505 581 31,000  Level New York Center
Mon 02:33:43 PM 41.5100 -77.9603 100° East 497 572 31,000  Level New York Center
Mon 02:34:43 PM 41.4869 -77.7889 100° East 497 572 31,000  Level New York Center
Mon 02:35:44 PM 41.4619 -77.6089 100° East 497 572 31,000  Level New York Center
Mon 02:36:41 PM 41.4350 -77.4236 101° East 502 578 31,000  Level New York Center
Mon 02:37:41 PM 41.4044 -77.2239 101° East 502 578 31,000  Level New York Center
Mon 02:38:42 PM 41.3786 -77.0444 101° East 497 572 31,000 -787 Level New York Center
Mon 02:39:43 PM 41.3503 -76.8650 102° East 497 572 29,400 -2,067 Descending New York Center
Mon 02:40:41 PM 41.3153 -76.6933 105° East 492 566 26,900 -2,492 Descending New York Center
Mon 02:41:41 PM 41.2675 -76.5206 110° East 492 566 24,500 -2,400 Descending New York Center
Mon 02:42:41 PM 41.2214 -76.3542 110° East 492 566 22,100 -2,479 Descending New York Center
Mon 02:43:42 PM 41.1806 -76.2044 110° East 487 560 19,500 -2,000 Descending New York Center
Mon 02:44:41 PM 41.1453 -76.0583 108° East 442 509 18,100 -850 Descending New York Center
Mon 02:45:42 PM 41.1042 -75.9092 110° East 392 451 17,800 -1,131 Descending New York Center
Mon 02:46:43 PM 41.0683 -75.7717 109° East 384 442 15,800 -2,331 Descending New York Center
Mon 02:47:43 PM 41.0319 -75.6425 110° East 384 442 13,100 -1,373 Descending New York Center
Mon 02:48:41 PM 40.9953 -75.5189 111° Southeast 377 434 13,100  Level New York Center
Mon 02:49:41 PM 40.9606 -75.3956 110° East 363 418 13,100 -149 Level New York Center
Mon 02:50:42 PM 40.9258 -75.2694 110° East 357 411 12,800 -942 Descending New York Center
Mon 02:51:42 PM 40.8983 -75.1689 110° East 340 391 11,200 -1,900 Descending New York Center
Mon 02:52:42 PM 40.8689 -75.0656 111° Southeast 311 358 9,000 -2,066 Descending New York Center
Mon 02:53:44 PM 40.8372 -74.9592 111° Southeast 289 333 7,000 -1,361 Descending New York Center
Mon 02:54:41 PM 40.8408 -74.8608 87° East 280 322 6,300 -504 Descending New York Center
Mon 02:55:43 PM 40.8567 -74.7631 78° East 270 311 6,000 -150 Descending New York Center
Mon 02:56:41 PM 40.8703 -74.6650 80° East 275 316 6,000  Level New York Center
Mon 02:57:42 PM 40.9144 -74.5878 53° Northeast 254 292 6,000 -148 Level New York Center
Mon 02:58:43 PM 40.9483 -74.5072 61° Northeast 254 292 5,700 -504 Descending New York Center
Mon 02:59:41 PM 40.9619 -74.4092 80° East 254 292 5,000 -555 Descending New York Center
Mon 03:00:42 PM 40.9628 -74.3131 89° East 262 302 4,600 -469 Descending New York Center
Mon 03:01:49 PM 40.9333 -74.2167 112° Southeast 267 307 4,000 -283 Descending New York TRACON
Mon 03:02:49 PM 40.9000 -74.1333 118° Southeast 255 293 4,000 -200 Level New York TRACON
Mon 03:03:49 PM 40.8500 -74.1000 153° Southeast 202 232 3,600 -400 Descending New York TRACON

Login

Don't have an account? Register now (free) for customized features, flight alerts, and more!